createdAt,value
2022-10-17T00:00:59.385Z,3.20
2022-10-17T00:03:26.321Z,2.83
2022-10-17T00:05:53.378Z,3.00
2022-10-17T00:08:20.589Z,3.60
2022-10-17T00:11:01.373Z,3.10
2022-10-17T00:13:28.923Z,2.83
2022-10-17T00:15:56.233Z,2.73
2022-10-17T00:18:23.235Z,3.20
2022-10-17T00:20:50.600Z,3.30
2022-10-17T00:23:17.916Z,3.57
2022-10-17T00:25:44.941Z,3.00
2022-10-17T00:28:14.591Z,2.80
2022-10-17T00:30:41.622Z,2.53
2022-10-17T00:33:08.629Z,3.57
2022-10-17T00:35:35.564Z,3.10
2022-10-17T00:38:02.516Z,2.90
2022-10-17T00:40:29.480Z,2.77
2022-10-17T00:42:56.438Z,2.80
2022-10-17T00:45:28.972Z,2.90
2022-10-17T00:48:09.354Z,2.40
2022-10-17T00:50:42.763Z,2.87
2022-10-17T00:53:10.674Z,3.50
2022-10-17T00:55:49.327Z,3.53
2022-10-17T00:58:16.726Z,3.30
2022-10-17T01:00:44.690Z,3.63
2022-10-17T01:03:11.686Z,3.10
2022-10-17T01:05:39.778Z,2.70
2022-10-17T01:08:07.528Z,3.13
2022-10-17T01:11:25.033Z,3.00
2022-10-17T01:14:41.704Z,2.13
2022-10-17T01:17:55.470Z,2.90
2022-10-17T01:20:35.627Z,3.03
2022-10-17T01:23:59.794Z,2.50
2022-10-17T01:27:13.048Z,3.10
2022-10-17T01:30:22.411Z,2.70
2022-10-17T01:33:06.368Z,2.90
2022-10-17T01:35:51.201Z,3.10
2022-10-17T01:38:30.777Z,2.77
2022-10-17T01:41:39.786Z,2.47
2022-10-17T01:45:09.737Z,2.90
2022-10-17T01:47:38.023Z,2.17
2022-10-17T01:50:16.939Z,2.47
2022-10-17T01:52:53.525Z,2.17
2022-10-17T01:55:32.817Z,2.43
2022-10-17T01:58:10.702Z,2.40
2022-10-17T02:00:42.497Z,2.90
2022-10-17T02:03:15.695Z,3.23
2022-10-17T02:05:43.906Z,3.77
2022-10-17T02:08:14.508Z,2.37
2022-10-17T02:11:01.596Z,2.77
2022-10-17T02:13:43.294Z,2.40
2022-10-17T02:16:59.478Z,2.70
2022-10-17T02:20:02.146Z,2.30
2022-10-17T02:22:56.562Z,2.37
2022-10-17T02:25:57.063Z,2.27
2022-10-17T02:29:15.019Z,2.60
2022-10-17T02:32:06.817Z,2.47
2022-10-17T02:34:48.175Z,2.50
2022-10-17T02:37:23.077Z,2.30
2022-10-17T02:39:51.115Z,2.20
2022-10-17T02:42:19.728Z,2.37
2022-10-17T02:44:47.834Z,1.93
2022-10-17T02:47:39.819Z,2.30
2022-10-17T02:50:07.514Z,3.00
2022-10-17T02:52:35.479Z,2.60
2022-10-17T02:55:30.702Z,3.20
2022-10-17T02:58:06.831Z,2.50
2022-10-17T03:00:34.571Z,2.70
2022-10-17T03:03:01.474Z,3.00
2022-10-17T03:05:29.822Z,2.63
2022-10-17T03:07:57.439Z,2.40
2022-10-17T03:10:24.363Z,2.50
2022-10-17T03:12:51.272Z,2.70
2022-10-17T03:15:18.187Z,3.10
2022-10-17T03:20:17.141Z,3.10
2022-10-17T03:22:44.264Z,3.13
2022-10-17T03:25:11.160Z,2.90
2022-10-17T03:27:38.124Z,2.90
2022-10-17T03:30:06.090Z,3.47
2022-10-17T03:32:36.097Z,3.60
2022-10-17T03:35:03.950Z,3.70
2022-10-17T03:37:31.260Z,4.00
2022-10-17T03:39:58.328Z,5.00
2022-10-17T03:42:25.428Z,3.70
2022-10-17T03:44:52.358Z,3.03
2022-10-17T03:47:19.298Z,4.00
2022-10-17T03:49:46.274Z,3.97
2022-10-17T03:52:13.922Z,4.27
2022-10-17T03:54:40.956Z,5.47
2022-10-17T03:57:07.934Z,4.70
2022-10-17T03:59:34.861Z,5.20
2022-10-17T04:02:01.789Z,6.10
2022-10-17T04:04:28.755Z,5.70
2022-10-17T04:06:55.670Z,5.27
2022-10-17T04:09:22.617Z,5.90
2022-10-17T04:11:49.928Z,5.17
2022-10-17T04:14:16.868Z,4.77
2022-10-17T04:16:43.886Z,6.37
2022-10-17T04:19:13.525Z,5.70
2022-10-17T04:21:40.754Z,5.13
2022-10-17T04:24:11.733Z,7.07
2022-10-17T04:26:39.291Z,6.93
2022-10-17T04:29:08.485Z,7.37
2022-10-17T04:31:39.046Z,7.50
2022-10-17T04:34:05.938Z,7.17
2022-10-17T04:36:33.196Z,7.67
2022-10-17T04:39:03.439Z,8.00
2022-10-17T04:41:30.500Z,7.93
2022-10-17T04:43:57.635Z,8.80
2022-10-17T04:46:24.559Z,8.50
2022-10-17T04:48:51.453Z,8.63
2022-10-17T04:51:21.851Z,8.10
2022-10-17T04:53:51.472Z,8.63
2022-10-17T04:56:24.433Z,5.13
2022-10-17T04:58:52.106Z,5.50
2022-10-17T05:01:22.903Z,8.27
2022-10-17T05:03:50.610Z,8.67
2022-10-17T05:06:22.547Z,6.93
2022-10-17T05:08:52.416Z,8.20
2022-10-17T05:11:29.878Z,5.80
2022-10-17T05:14:01.076Z,8.57
2022-10-17T05:16:30.212Z,7.93
2022-10-17T05:18:58.778Z,10.00
2022-10-17T05:21:29.230Z,9.30
2022-10-17T05:23:56.816Z,9.30
2022-10-17T05:26:24.435Z,9.53
2022-10-17T05:28:52.433Z,6.50
2022-10-17T05:31:19.601Z,9.57
2022-10-17T05:33:46.822Z,9.27
2022-10-17T05:36:13.925Z,9.17
2022-10-17T05:38:40.891Z,8.40
2022-10-17T05:41:07.853Z,6.50
2022-10-17T05:43:36.473Z,6.20
2022-10-17T05:46:06.149Z,10.33
2022-10-17T05:48:34.407Z,5.97
2022-10-17T05:51:09.664Z,4.27
2022-10-17T05:53:44.284Z,8.40
2022-10-17T05:56:15.152Z,8.17
2022-10-17T05:58:50.318Z,6.37
2022-10-17T06:01:20.261Z,8.27
2022-10-17T06:03:47.317Z,7.90
2022-10-17T06:06:15.653Z,8.57
2022-10-17T06:08:43.395Z,8.27
2022-10-17T06:11:12.174Z,8.90
2022-10-17T06:13:39.889Z,7.43
2022-10-17T06:16:07.486Z,8.23
2022-10-17T06:18:37.071Z,8.37
2022-10-17T06:21:20.898Z,8.73
2022-10-17T06:23:48.049Z,7.50
2022-10-17T06:26:15.221Z,8.20
2022-10-17T06:28:43.348Z,6.87
2022-10-17T06:31:17.210Z,7.93
2022-10-17T06:33:44.295Z,7.60
2022-10-17T06:36:14.380Z,7.43
2022-10-17T06:38:41.726Z,7.10
2022-10-17T06:41:15.925Z,4.63
2022-10-17T06:43:47.958Z,6.17
2022-10-17T06:46:18.048Z,6.10
2022-10-17T06:48:45.331Z,5.17
2022-10-17T06:51:12.801Z,5.73
2022-10-17T06:53:40.815Z,6.17
2022-10-17T06:56:10.152Z,4.03
2022-10-17T06:58:39.868Z,5.17
2022-10-17T07:01:13.169Z,5.30
2022-10-17T07:03:41.270Z,5.93
2022-10-17T07:06:10.736Z,5.90
2022-10-17T07:08:38.183Z,5.27
2022-10-17T07:11:21.939Z,5.20
2022-10-17T07:13:52.509Z,5.87
2022-10-17T07:16:21.118Z,5.10
2022-10-17T07:18:51.034Z,5.73
2022-10-17T07:21:18.665Z,5.63
2022-10-17T07:23:45.998Z,5.70
2022-10-17T07:26:18.472Z,5.43
2022-10-17T07:28:51.464Z,4.60
2022-10-17T07:31:20.641Z,4.97
2022-10-17T07:33:48.308Z,4.97
2022-10-17T07:36:16.188Z,4.53
2022-10-17T07:38:43.179Z,4.60
2022-10-17T07:41:16.546Z,4.30
2022-10-17T07:43:46.374Z,4.10
2022-10-17T07:46:13.363Z,4.13
2022-10-17T07:48:40.656Z,4.50
2022-10-17T07:51:09.687Z,4.03
2022-10-17T07:53:39.826Z,3.90
2022-10-17T07:56:09.492Z,4.53
2022-10-17T07:58:37.958Z,4.03
2022-10-17T08:01:14.737Z,4.47
2022-10-17T08:03:44.514Z,3.57
2022-10-17T08:06:11.729Z,3.90
2022-10-17T08:08:38.685Z,4.13
2022-10-17T08:11:10.695Z,4.10
2022-10-17T08:13:38.444Z,3.57
2022-10-17T08:16:10.062Z,3.70
2022-10-17T08:18:40.113Z,3.57
2022-10-17T08:21:10.433Z,3.45
2022-10-17T08:23:37.759Z,3.77
2022-10-17T08:26:10.407Z,3.40
2022-10-17T08:28:40.389Z,3.47
2022-10-17T08:31:14.507Z,3.42
2022-10-17T08:33:42.696Z,2.97
2022-10-17T08:36:10.717Z,3.15
2022-10-17T08:38:43.163Z,2.75
2022-10-17T08:41:59.580Z,3.30
2022-10-17T08:45:03.076Z,3.03
2022-10-17T08:47:39.765Z,3.20
2022-10-17T08:50:36.081Z,2.95
2022-10-17T08:53:27.846Z,2.72
2022-10-17T08:55:55.616Z,2.90
2022-10-17T08:58:35.276Z,3.00
2022-10-17T09:01:17.419Z,2.65
2022-10-17T09:04:35.205Z,2.35
2022-10-17T09:07:16.342Z,2.50
2022-10-17T09:10:23.090Z,2.78
2022-10-17T09:13:48.914Z,2.55
2022-10-17T09:16:58.178Z,2.70
2022-10-17T09:19:41.461Z,2.50
2022-10-17T09:22:27.641Z,2.78
2022-10-17T09:25:03.291Z,2.83
2022-10-17T09:27:51.678Z,2.65
2022-10-17T09:30:44.561Z,2.28
2022-10-17T09:36:24.425Z,2.40
2022-10-17T09:39:16.831Z,2.60
2022-10-17T09:41:53.557Z,2.92
2022-10-17T09:44:35.032Z,2.30
2022-10-17T09:47:31.189Z,2.80
2022-10-17T09:49:58.560Z,3.05
2022-10-17T09:52:36.450Z,2.60
2022-10-17T09:55:21.322Z,2.45
2022-10-17T09:58:04.821Z,2.75
2022-10-17T10:00:45.980Z,2.85
2022-10-17T10:03:24.189Z,2.83
2022-10-17T10:06:18.654Z,2.67
2022-10-17T10:08:55.402Z,2.40
2022-10-17T10:11:55.425Z,2.70
2022-10-17T10:14:34.759Z,2.67
2022-10-17T10:17:06.881Z,2.08
2022-10-17T10:19:39.186Z,1.98
2022-10-17T10:22:26.439Z,2.40
2022-10-17T10:25:17.941Z,2.17
2022-10-17T10:27:46.504Z,1.95
2022-10-17T10:30:29.094Z,2.38
2022-10-17T10:33:00.249Z,2.10
2022-10-17T10:35:37.013Z,2.20
2022-10-17T10:38:14.746Z,2.38
2022-10-17T10:40:54.370Z,2.30
2022-10-17T10:43:43.746Z,2.30
2022-10-17T10:46:28.600Z,2.10
2022-10-17T10:49:03.185Z,2.15
2022-10-17T10:51:42.856Z,2.25
2022-10-17T10:54:55.078Z,2.15
2022-10-17T10:57:29.171Z,2.47
2022-10-17T11:00:21.056Z,1.98
2022-10-17T11:03:19.334Z,2.10
2022-10-17T11:05:54.698Z,2.20
2022-10-17T11:08:40.358Z,2.50
2022-10-17T11:11:32.245Z,2.00
2022-10-17T11:14:30.406Z,2.30
2022-10-17T11:17:34.989Z,1.90
2022-10-17T11:20:16.389Z,2.10
2022-10-17T11:22:57.528Z,2.40
2022-10-17T11:25:40.775Z,2.00
2022-10-17T11:28:24.811Z,2.00
2022-10-17T11:31:13.468Z,2.25
2022-10-17T11:34:19.326Z,2.17
2022-10-17T11:36:52.805Z,2.00
2022-10-17T11:40:08.291Z,1.90
2022-10-17T11:42:57.664Z,1.90
2022-10-17T11:45:33.591Z,2.25
2022-10-17T11:48:12.525Z,2.13
2022-10-17T11:53:54.661Z,2.15
2022-10-17T11:56:56.059Z,1.80
2022-10-17T11:59:52.588Z,1.80
2022-10-17T12:03:32.300Z,2.03
2022-10-17T12:06:31.532Z,1.90
2022-10-17T12:09:38.368Z,2.30
2022-10-17T12:12:05.739Z,1.92
2022-10-17T12:14:46.699Z,1.83
2022-10-17T12:17:45.785Z,2.00
2022-10-17T12:20:24.222Z,2.15
2022-10-17T12:23:10.683Z,2.33
2022-10-17T12:26:06.780Z,2.10
2022-10-17T12:28:48.182Z,1.92
2022-10-17T12:31:32.443Z,2.17
2022-10-17T12:34:05.422Z,2.20
2022-10-17T12:36:32.249Z,2.35
2022-10-17T12:39:02.245Z,2.40
2022-10-17T12:41:38.430Z,2.80
2022-10-17T12:44:21.236Z,3.05
2022-10-17T12:47:07.921Z,2.63
2022-10-17T12:49:55.829Z,2.83
2022-10-17T12:52:29.647Z,2.65
2022-10-17T12:55:13.932Z,2.92
2022-10-17T12:58:08.114Z,2.70
2022-10-17T13:01:22.689Z,2.63
2022-10-17T13:03:48.841Z,3.13
2022-10-17T13:06:30.956Z,2.80
2022-10-17T13:09:09.122Z,3.50
2022-10-17T13:11:39.360Z,2.88
2022-10-17T13:14:15.132Z,3.03
2022-10-17T13:16:52.546Z,3.00
2022-10-17T13:19:28.775Z,2.70
2022-10-17T13:22:06.878Z,2.38
2022-10-17T13:24:39.139Z,2.85
2022-10-17T13:27:33.572Z,2.60
2022-10-17T13:30:32.169Z,2.22
2022-10-17T13:33:01.528Z,2.40
2022-10-17T13:38:32.680Z,2.88
2022-10-17T13:41:30.067Z,2.42
2022-10-17T13:43:51.255Z,2.78
2022-10-17T13:46:37.961Z,2.60
2022-10-17T13:49:22.200Z,2.10
2022-10-17T13:51:54.430Z,1.88
2022-10-17T13:54:41.936Z,2.30
2022-10-17T13:57:29.084Z,1.85
2022-10-17T14:00:11.413Z,2.58
2022-10-17T14:02:40.972Z,2.20
2022-10-17T14:05:18.763Z,2.10
2022-10-17T14:08:14.503Z,2.05
2022-10-17T14:10:44.686Z,2.05
2022-10-17T14:13:30.164Z,1.95
2022-10-17T14:16:03.805Z,2.63
2022-10-17T14:18:37.086Z,2.40
2022-10-17T14:24:28.258Z,2.10
2022-10-17T14:26:59.551Z,2.13
2022-10-17T14:29:32.220Z,2.08
2022-10-17T14:32:15.521Z,2.10
2022-10-17T14:34:42.673Z,2.40
2022-10-17T14:37:28.148Z,2.10
2022-10-17T14:39:55.685Z,1.65
2022-10-17T14:42:23.874Z,2.22
2022-10-17T14:44:54.381Z,2.25
2022-10-17T14:50:13.161Z,2.17
2022-10-17T14:52:40.770Z,2.20
2022-10-17T14:55:31.270Z,2.20
2022-10-17T14:57:58.657Z,2.60
2022-10-17T15:00:26.607Z,1.70
2022-10-17T15:02:56.116Z,2.00
2022-10-17T15:05:23.428Z,2.00
2022-10-17T15:07:50.880Z,2.35
2022-10-17T15:10:33.628Z,1.92
2022-10-17T15:15:51.870Z,1.88
2022-10-17T15:18:19.354Z,1.90
2022-10-17T15:20:46.438Z,2.00
2022-10-17T15:23:13.388Z,2.00
2022-10-17T15:25:40.412Z,2.05
2022-10-17T15:28:07.938Z,2.38
2022-10-17T15:30:36.989Z,2.42
2022-10-17T15:33:04.131Z,2.78
2022-10-17T15:35:31.415Z,2.67
2022-10-17T15:37:58.632Z,2.80
2022-10-17T15:40:29.376Z,2.38
2022-10-17T15:42:57.494Z,2.42
2022-10-17T15:45:25.385Z,2.20
2022-10-17T15:48:05.804Z,2.25
2022-10-17T15:50:32.809Z,2.33
2022-10-17T15:53:00.256Z,2.28
2022-10-17T15:55:27.827Z,2.45
2022-10-17T15:57:54.826Z,2.50
2022-10-17T16:00:24.325Z,2.83
2022-10-17T16:02:51.676Z,2.45
2022-10-17T16:05:26.407Z,2.70
2022-10-17T16:07:54.688Z,2.63
2022-10-17T16:10:22.772Z,2.58
2022-10-17T16:12:50.581Z,2.58
2022-10-17T16:15:27.278Z,2.92
2022-10-17T16:17:57.282Z,2.45
2022-10-17T16:20:25.628Z,2.72
2022-10-17T16:22:59.587Z,3.40
2022-10-17T16:25:29.854Z,2.70
2022-10-17T16:27:59.974Z,2.60
2022-10-17T16:30:31.815Z,2.42
2022-10-17T16:32:58.899Z,3.28
2022-10-17T16:35:33.318Z,2.67
2022-10-17T16:38:05.718Z,2.70
2022-10-17T16:40:32.833Z,2.80
2022-10-17T16:43:00.027Z,3.53
2022-10-17T16:45:27.254Z,3.85
2022-10-17T16:47:54.947Z,3.17
2022-10-17T16:50:22.249Z,3.05
2022-10-17T16:52:49.204Z,3.00
2022-10-17T16:55:18.930Z,3.20
2022-10-17T16:57:46.182Z,3.30
2022-10-17T17:00:14.116Z,3.00
2022-10-17T17:02:41.050Z,3.03
2022-10-17T17:05:08.602Z,3.08
2022-10-17T17:07:35.588Z,3.05
2022-10-17T17:10:02.553Z,3.25
2022-10-17T17:12:31.597Z,2.60
2022-10-17T17:14:58.552Z,3.00
2022-10-17T17:17:44.247Z,3.65
2022-10-17T17:20:12.352Z,3.42
2022-10-17T17:22:39.293Z,3.53
2022-10-17T17:25:06.682Z,3.45
2022-10-17T17:27:33.661Z,3.50
2022-10-17T17:30:00.607Z,3.63
2022-10-17T17:32:27.607Z,4.05
2022-10-17T17:34:54.577Z,3.58
2022-10-17T17:37:21.493Z,3.35
2022-10-17T17:39:48.457Z,3.50
2022-10-17T17:42:15.379Z,4.35
2022-10-17T17:44:42.353Z,3.55
2022-10-17T17:47:09.327Z,4.13
2022-10-17T17:49:36.295Z,4.90
2022-10-17T17:54:38.537Z,5.05
2022-10-17T17:57:07.904Z,5.20
2022-10-17T17:59:35.054Z,4.97
2022-10-17T18:02:02.794Z,4.43
2022-10-17T18:04:29.807Z,5.18
2022-10-17T18:06:56.913Z,5.80
2022-10-17T18:09:23.956Z,5.35
2022-10-17T18:11:50.951Z,5.07
2022-10-17T18:14:19.115Z,5.15
2022-10-17T18:16:46.080Z,5.03
2022-10-17T18:19:13.167Z,4.43
2022-10-17T18:21:40.118Z,4.10
2022-10-17T18:24:07.819Z,4.32
2022-10-17T18:26:35.600Z,4.90
2022-10-17T18:29:03.457Z,5.70
2022-10-17T18:31:35.599Z,5.72
2022-10-17T18:34:05.291Z,5.10
2022-10-17T18:36:34.677Z,4.88
2022-10-17T18:39:02.400Z,4.50
2022-10-17T18:41:29.922Z,4.80
2022-10-17T18:43:57.797Z,4.65
2022-10-17T18:46:35.519Z,5.22
2022-10-17T18:49:03.457Z,4.93
2022-10-17T18:51:30.363Z,4.80
2022-10-17T18:53:58.743Z,5.03
2022-10-17T18:56:26.420Z,5.53
2022-10-17T18:58:53.378Z,5.80
2022-10-17T19:01:24.974Z,5.68
2022-10-17T19:03:57.248Z,5.63
2022-10-17T19:06:32.152Z,5.43
2022-10-17T19:09:02.166Z,5.40
2022-10-17T19:11:31.722Z,4.93
2022-10-17T19:14:03.672Z,4.80
2022-10-17T19:16:36.027Z,5.50
2022-10-17T19:19:24.298Z,5.28
2022-10-17T19:21:52.672Z,5.28
2022-10-17T19:24:27.419Z,5.88
2022-10-17T19:26:59.363Z,5.50
2022-10-17T19:29:31.066Z,4.80
2022-10-17T19:31:58.840Z,4.45
2022-10-17T19:34:27.625Z,4.97
2022-10-17T19:36:55.709Z,4.25
2022-10-17T19:39:24.745Z,4.60
2022-10-17T19:41:51.694Z,5.00
2022-10-17T19:44:18.924Z,4.18
2022-10-17T19:46:48.850Z,4.90
2022-10-17T19:49:17.055Z,5.18
2022-10-17T19:51:44.374Z,5.17
2022-10-17T19:54:12.293Z,4.30
2022-10-17T19:56:40.256Z,4.63
2022-10-17T19:59:08.337Z,4.80
2022-10-17T20:01:40.998Z,5.10
2022-10-17T20:04:10.612Z,4.05
2022-10-17T20:06:38.555Z,4.60
2022-10-17T20:09:08.012Z,4.90
2022-10-17T20:11:36.882Z,4.75
2022-10-17T20:14:03.821Z,4.70
2022-10-17T20:16:34.558Z,5.38
2022-10-17T20:19:13.058Z,6.28
2022-10-17T20:21:40.360Z,5.25
2022-10-17T20:24:12.304Z,5.10
2022-10-17T20:26:40.157Z,5.60
2022-10-17T20:29:20.913Z,5.28
2022-10-17T20:31:48.788Z,5.87
2022-10-17T20:34:18.391Z,5.20
2022-10-17T20:36:46.490Z,5.10
2022-10-17T20:39:20.966Z,5.40
2022-10-17T20:41:48.620Z,5.03
2022-10-17T20:44:15.897Z,5.43
2022-10-17T20:47:00.626Z,5.53
2022-10-17T20:49:27.981Z,4.77
2022-10-17T20:51:54.873Z,4.93
2022-10-17T20:54:22.327Z,5.70
2022-10-17T20:56:49.282Z,5.25
2022-10-17T20:59:18.018Z,5.30
2022-10-17T21:01:46.009Z,3.88
2022-10-17T21:07:01.205Z,5.23
2022-10-17T21:09:28.278Z,4.53
2022-10-17T21:11:56.041Z,5.40
2022-10-17T21:14:25.155Z,4.30
2022-10-17T21:16:52.261Z,4.03
2022-10-17T21:19:19.434Z,5.63
2022-10-17T21:21:47.012Z,4.80
2022-10-17T21:24:17.960Z,5.30
2022-10-17T21:26:47.754Z,5.90
2022-10-17T21:29:15.460Z,5.90
2022-10-17T21:31:44.608Z,6.47
2022-10-17T21:34:18.387Z,5.13
2022-10-17T21:36:45.544Z,4.97
2022-10-17T21:39:14.966Z,5.80
2022-10-17T21:41:43.525Z,6.03
2022-10-17T21:44:20.577Z,6.67
2022-10-17T21:46:48.261Z,6.00
2022-10-17T21:49:20.640Z,6.60
2022-10-17T21:51:49.031Z,6.87
2022-10-17T21:54:17.732Z,6.70
2022-10-17T21:56:45.176Z,5.70
2022-10-17T21:59:12.407Z,5.90
2022-10-17T22:01:43.905Z,6.70
2022-10-17T22:04:16.032Z,6.53
2022-10-17T22:06:50.906Z,6.63
2022-10-17T22:09:25.318Z,5.93
2022-10-17T22:11:56.519Z,6.10
2022-10-17T22:14:27.996Z,6.37
2022-10-17T22:16:55.462Z,6.83
2022-10-17T22:19:26.745Z,5.83
2022-10-17T22:21:54.521Z,6.10
2022-10-17T22:24:23.364Z,5.83
2022-10-17T22:26:50.823Z,6.73
2022-10-17T22:29:17.810Z,5.40
2022-10-17T22:31:45.005Z,5.67
2022-10-17T22:34:15.725Z,6.22
2022-10-17T22:36:43.577Z,5.53
2022-10-17T22:39:11.304Z,4.17
2022-10-17T22:41:38.447Z,4.67
2022-10-17T22:44:06.310Z,6.13
2022-10-17T22:46:33.311Z,5.90
2022-10-17T22:49:00.325Z,6.13
2022-10-17T22:51:27.586Z,5.60
2022-10-17T22:53:54.526Z,5.87
2022-10-17T22:56:22.775Z,5.93
2022-10-17T22:58:50.694Z,4.85
2022-10-17T23:01:22.882Z,5.40
2022-10-17T23:03:51.493Z,5.47
2022-10-17T23:06:20.029Z,4.80
2022-10-17T23:08:47.070Z,5.27
2022-10-17T23:11:14.074Z,4.57
2022-10-17T23:13:41.147Z,5.00
2022-10-17T23:16:08.673Z,4.97
2022-10-17T23:18:37.626Z,4.83
2022-10-17T23:21:05.380Z,4.95
2022-10-17T23:23:32.461Z,5.35
2022-10-17T23:26:11.882Z,5.63
2022-10-17T23:28:40.292Z,5.60
2022-10-17T23:31:17.821Z,5.53
2022-10-17T23:33:49.761Z,5.93
2022-10-17T23:36:20.684Z,5.67
2022-10-17T23:38:48.994Z,5.53
2022-10-17T23:41:17.087Z,5.63
2022-10-17T23:43:46.975Z,5.60
2022-10-17T23:46:14.458Z,4.27
2022-10-17T23:48:41.919Z,6.07
2022-10-17T23:51:10.692Z,5.27
2022-10-17T23:53:39.168Z,6.17
2022-10-17T23:56:07.758Z,6.72
2022-10-17T23:58:37.711Z,6.47
